createdAt,value
2019-01-31T00:00:25.809Z,19.64
2019-01-31T00:00:57.908Z,19.64
2019-01-31T00:01:29.906Z,19.71
2019-01-31T00:02:01.991Z,19.68
2019-01-31T00:02:33.953Z,19.65
2019-01-31T00:03:05.924Z,19.68
2019-01-31T00:03:37.905Z,19.65
2019-01-31T00:04:09.876Z,19.68
2019-01-31T00:04:41.853Z,19.68
2019-01-31T00:05:13.859Z,19.68
2019-01-31T00:05:45.834Z,19.72
2019-01-31T00:06:17.808Z,19.68
2019-01-31T00:06:49.787Z,19.6
2019-01-31T00:07:21.756Z,19.68
2019-01-31T00:07:53.723Z,19.68
2019-01-31T00:08:25.707Z,19.65
2019-01-31T00:08:57.677Z,19.68
2019-01-31T00:09:29.656Z,19.71
2019-01-31T00:10:01.642Z,19.65
2019-01-31T00:10:33.670Z,19.7
2019-01-31T00:11:05.777Z,19.68
2019-01-31T00:11:37.901Z,19.68
2019-01-31T00:12:09.988Z,19.63
2019-01-31T00:12:41.965Z,19.65
2019-01-31T00:13:13.926Z,19.65
2019-01-31T00:13:45.905Z,19.65
2019-01-31T00:14:17.879Z,19.72
2019-01-31T00:14:49.858Z,19.7
2019-01-31T00:15:21.829Z,19.65
2019-01-31T00:15:53.807Z,19.68
2019-01-31T00:16:25.775Z,19.65
2019-01-31T00:16:57.740Z,19.61
2019-01-31T00:17:29.709Z,19.7
2019-01-31T00:18:01.693Z,19.64
2019-01-31T00:18:33.668Z,19.67
2019-01-31T00:19:05.641Z,19.65
2019-01-31T00:19:37.607Z,19.71
2019-01-31T00:20:09.586Z,19.7
2019-01-31T00:20:41.559Z,19.57
2019-01-31T00:21:13.532Z,19.67
2019-01-31T00:21:45.525Z,19.64
2019-01-31T00:22:17.486Z,19.65
2019-01-31T00:22:49.471Z,19.65
2019-01-31T00:23:21.446Z,19.63
2019-01-31T00:23:53.423Z,19.63
2019-01-31T00:24:25.403Z,19.64
2019-01-31T00:24:57.380Z,19.67
2019-01-31T00:25:29.349Z,19.64
2019-01-31T00:26:01.353Z,19.64
2019-01-31T00:26:33.308Z,19.72
2019-01-31T00:27:05.262Z,19.63
2019-01-31T00:27:37.235Z,19.67
2019-01-31T00:28:09.208Z,19.64
2019-01-31T00:28:41.188Z,19.64
2019-01-31T00:29:13.168Z,19.67
2019-01-31T00:29:45.152Z,19.65
2019-01-31T00:30:17.116Z,19.64
2019-01-31T00:30:49.093Z,19.67
2019-01-31T00:31:21.078Z,19.65
2019-01-31T00:31:53.086Z,19.64
2019-01-31T00:32:25.066Z,19.63
2019-01-31T00:32:57.043Z,19.65
2019-01-31T00:33:29.020Z,19.64
2019-01-31T00:34:00.991Z,19.65
2019-01-31T00:34:32.970Z,19.68
2019-01-31T00:35:04.947Z,19.65
2019-01-31T00:35:36.930Z,19.67
2019-01-31T00:36:08.910Z,19.68
2019-01-31T00:36:40.884Z,19.63
2019-01-31T00:37:12.870Z,19.65
2019-01-31T00:37:44.828Z,19.67
2019-01-31T00:38:16.797Z,19.64
2019-01-31T00:38:56.466Z,19.65
2019-01-31T00:39:28.944Z,19.63
2019-01-31T00:40:00.958Z,19.65
2019-01-31T00:40:32.929Z,19.64
2019-01-31T00:41:04.933Z,19.57
2019-01-31T00:41:36.902Z,19.63
2019-01-31T00:42:08.884Z,19.63
2019-01-31T00:42:40.853Z,19.64
2019-01-31T00:43:12.816Z,19.61
2019-01-31T00:43:44.795Z,19.61
2019-01-31T00:44:16.751Z,19.64
2019-01-31T00:44:48.736Z,19.63
2019-01-31T00:45:20.715Z,19.63
2019-01-31T00:45:52.703Z,19.61
2019-01-31T00:46:24.683Z,19.57
2019-01-31T00:46:56.653Z,19.64
2019-01-31T00:47:28.622Z,19.63
2019-01-31T00:48:00.592Z,19.61
2019-01-31T00:48:32.574Z,19.67
2019-01-31T00:49:04.530Z,19.61
2019-01-31T00:49:36.497Z,19.67
2019-01-31T00:50:08.483Z,19.67
2019-01-31T00:50:40.468Z,19.6
2019-01-31T00:51:12.442Z,19.64
2019-01-31T00:51:44.413Z,19.56
2019-01-31T00:52:16.373Z,19.57
2019-01-31T00:52:48.374Z,19.64
2019-01-31T00:53:20.350Z,19.57
2019-01-31T00:53:52.338Z,19.65
2019-01-31T00:54:24.300Z,19.65
2019-01-31T00:54:56.274Z,19.63
2019-01-31T00:55:28.253Z,19.61
2019-01-31T00:56:00.236Z,19.6
2019-01-31T00:56:32.213Z,19.57
2019-01-31T00:57:04.189Z,19.6
2019-01-31T00:57:36.175Z,19.63
2019-01-31T00:58:08.242Z,19.65
2019-01-31T00:58:40.215Z,19.57
2019-01-31T00:59:12.173Z,19.61
2019-01-31T00:59:44.129Z,19.6
2019-01-31T01:00:16.125Z,19.63
2019-01-31T01:00:48.106Z,19.63
2019-01-31T01:01:20.077Z,19.56
2019-01-31T01:01:52.048Z,19.63
2019-01-31T01:02:24.042Z,19.6
2019-01-31T01:02:56.020Z,19.57
2019-01-31T01:03:27.996Z,19.57
2019-01-31T01:03:59.985Z,19.6
2019-01-31T01:04:31.976Z,19.57
2019-01-31T01:05:04.089Z,19.64
2019-01-31T01:05:36.084Z,19.63
2019-01-31T01:06:08.052Z,19.65
2019-01-31T01:06:40.017Z,19.56
2019-01-31T01:07:12.013Z,19.64
2019-01-31T01:07:43.981Z,19.56
2019-01-31T01:08:15.971Z,19.61
2019-01-31T01:08:47.947Z,19.61
2019-01-31T01:09:19.919Z,19.57
2019-01-31T01:09:51.887Z,19.6
2019-01-31T01:10:24.670Z,19.61
2019-01-31T01:10:56.643Z,19.61
2019-01-31T01:11:28.611Z,19.52
2019-01-31T01:12:00.583Z,19.61
2019-01-31T01:12:35.847Z,19.6
2019-01-31T01:13:07.956Z,19.52
2019-01-31T01:13:39.954Z,19.53
2019-01-31T01:14:11.930Z,19.55
2019-01-31T01:14:44.010Z,19.49
2019-01-31T01:15:15.970Z,19.6
2019-01-31T01:15:47.953Z,19.64
2019-01-31T01:16:19.941Z,19.55
2019-01-31T01:16:51.968Z,19.6
2019-01-31T01:17:23.941Z,19.5
2019-01-31T01:17:55.950Z,19.6
2019-01-31T01:18:27.933Z,19.6
2019-01-31T01:18:59.919Z,19.5
2019-01-31T01:19:31.898Z,19.53
2019-01-31T01:20:03.863Z,19.53
2019-01-31T01:20:35.837Z,19.53
2019-01-31T01:21:07.821Z,19.5
2019-01-31T01:21:39.790Z,19.55
2019-01-31T01:22:11.778Z,19.53
2019-01-31T01:22:43.741Z,19.52
2019-01-31T01:23:15.725Z,19.49
2019-01-31T01:23:47.708Z,19.49
2019-01-31T01:24:19.660Z,19.55
2019-01-31T01:24:51.726Z,19.49
2019-01-31T01:25:23.690Z,19.55
2019-01-31T01:25:55.711Z,19.52
2019-01-31T01:26:27.691Z,19.6
2019-01-31T01:26:59.669Z,19.52
2019-01-31T01:27:31.643Z,19.56
2019-01-31T01:28:03.613Z,19.52
2019-01-31T01:28:35.583Z,19.5
2019-01-31T01:29:07.561Z,19.6
2019-01-31T01:29:39.521Z,19.49
2019-01-31T01:30:11.499Z,19.55
2019-01-31T01:30:43.489Z,19.47
2019-01-31T01:31:15.527Z,19.5
2019-01-31T01:31:47.479Z,19.56
2019-01-31T01:32:19.448Z,19.57
2019-01-31T01:32:51.412Z,19.52
2019-01-31T01:33:23.491Z,19.53
2019-01-31T01:33:55.457Z,19.49
2019-01-31T01:34:27.452Z,19.53
2019-01-31T01:35:01.216Z,19.6
2019-01-31T01:35:33.738Z,19.5
2019-01-31T01:36:05.727Z,19.55
2019-01-31T01:36:37.695Z,19.5
2019-01-31T01:37:09.685Z,19.55
2019-01-31T01:37:41.654Z,19.52
2019-01-31T01:38:13.620Z,19.55
2019-01-31T01:38:45.582Z,19.56
2019-01-31T01:39:19.040Z,19.52
2019-01-31T01:39:51.459Z,19.5
2019-01-31T01:40:23.444Z,19.52
2019-01-31T01:40:55.417Z,19.56
2019-01-31T01:41:27.516Z,19.57
2019-01-31T01:41:59.486Z,19.53
2019-01-31T01:42:31.467Z,19.5
2019-01-31T01:43:03.449Z,19.56
2019-01-31T01:43:35.406Z,19.55
2019-01-31T01:44:07.381Z,19.56
2019-01-31T01:44:39.394Z,19.57
2019-01-31T01:45:11.380Z,19.53
2019-01-31T01:45:43.355Z,19.53
2019-01-31T01:46:15.339Z,19.52
2019-01-31T01:46:47.305Z,19.5
2019-01-31T01:47:19.282Z,19.5
2019-01-31T01:47:51.265Z,19.5
2019-01-31T01:48:23.348Z,19.49
2019-01-31T01:48:55.317Z,19.52
2019-01-31T01:49:27.291Z,19.49
2019-01-31T01:49:59.260Z,19.55
2019-01-31T01:50:31.538Z,19.55
2019-01-31T01:51:03.514Z,19.56
2019-01-31T01:51:35.484Z,19.49
2019-01-31T01:52:07.453Z,19.55
2019-01-31T01:52:39.416Z,19.52
2019-01-31T01:53:11.387Z,19.55
2019-01-31T01:53:43.362Z,19.52
2019-01-31T01:54:15.315Z,19.53
2019-01-31T01:54:47.284Z,19.6
2019-01-31T01:55:19.236Z,19.55
2019-01-31T01:55:51.244Z,19.52
2019-01-31T01:56:23.266Z,19.49
2019-01-31T01:56:55.278Z,19.52
2019-01-31T01:57:27.248Z,19.52
2019-01-31T01:57:59.211Z,19.57
2019-01-31T01:58:31.167Z,19.52
2019-01-31T01:59:03.152Z,19.53
2019-01-31T01:59:35.127Z,19.57
2019-01-31T02:00:07.101Z,19.47
2019-01-31T02:00:39.075Z,19.5
2019-01-31T02:01:11.056Z,19.49
2019-01-31T02:01:43.114Z,19.5
2019-01-31T02:02:15.078Z,19.57
2019-01-31T02:02:47.104Z,19.5
2019-01-31T02:03:19.079Z,19.5
2019-01-31T02:03:51.050Z,19.55
2019-01-31T02:04:23.016Z,19.6
2019-01-31T02:04:55.003Z,19.53
2019-01-31T02:05:26.970Z,19.53
2019-01-31T02:05:58.940Z,19.52
2019-01-31T02:06:30.929Z,19.52
2019-01-31T02:07:02.915Z,19.57
2019-01-31T02:07:34.885Z,19.5
2019-01-31T02:08:06.865Z,19.47
2019-01-31T02:08:38.836Z,19.49
2019-01-31T02:09:10.792Z,19.56
2019-01-31T02:09:42.763Z,19.47
2019-01-31T02:10:14.729Z,19.52
2019-01-31T02:10:46.699Z,19.57
2019-01-31T02:11:18.688Z,19.53
2019-01-31T02:11:50.654Z,19.52
2019-01-31T02:12:22.636Z,19.49
2019-01-31T02:12:54.687Z,19.5
2019-01-31T02:13:26.655Z,19.56
2019-01-31T02:13:58.611Z,19.49
2019-01-31T02:14:30.580Z,19.6
2019-01-31T02:15:02.549Z,19.5
2019-01-31T02:15:34.514Z,19.56
2019-01-31T02:16:06.502Z,19.49
2019-01-31T02:16:38.486Z,19.53
2019-01-31T02:17:10.585Z,19.53
2019-01-31T02:17:42.587Z,19.55
2019-01-31T02:18:14.571Z,19.5
2019-01-31T02:18:46.533Z,19.55
2019-01-31T02:19:18.504Z,19.5
2019-01-31T02:19:50.493Z,19.5
2019-01-31T02:20:22.461Z,19.52
2019-01-31T02:20:54.446Z,19.53
2019-01-31T02:21:26.419Z,19.57
2019-01-31T02:21:58.390Z,19.52
2019-01-31T02:22:30.374Z,19.47
2019-01-31T02:23:02.350Z,19.53
2019-01-31T02:23:34.321Z,19.55
2019-01-31T02:24:06.296Z,19.52
2019-01-31T02:24:38.270Z,19.56
2019-01-31T02:25:10.244Z,19.49
2019-01-31T02:25:42.212Z,19.56
2019-01-31T02:26:14.175Z,19.55
2019-01-31T02:26:46.165Z,19.52
2019-01-31T02:27:18.145Z,19.49
2019-01-31T02:27:50.104Z,19.56
2019-01-31T02:28:22.080Z,19.52
2019-01-31T02:28:54.058Z,19.5
2019-01-31T02:29:26.037Z,19.56
2019-01-31T02:29:57.999Z,19.55
2019-01-31T02:30:29.954Z,19.5
2019-01-31T02:31:02.156Z,19.56
2019-01-31T02:31:34.167Z,19.53
2019-01-31T02:32:06.144Z,19.53
2019-01-31T02:32:38.133Z,19.5
2019-01-31T02:33:10.171Z,19.47
2019-01-31T02:33:42.142Z,19.5
2019-01-31T02:34:14.133Z,19.5
2019-01-31T02:34:46.117Z,19.5
2019-01-31T02:35:18.123Z,19.47
2019-01-31T02:35:50.111Z,19.56
2019-01-31T02:36:22.101Z,19.49
2019-01-31T02:36:54.121Z,19.5
2019-01-31T02:37:26.114Z,19.5
2019-01-31T02:37:58.268Z,19.6
2019-01-31T02:38:30.255Z,19.5
2019-01-31T02:39:02.223Z,19.6
2019-01-31T02:39:42.587Z,19.49
2019-01-31T02:40:15.151Z,19.61
2019-01-31T02:40:47.149Z,19.47
2019-01-31T02:41:19.128Z,19.52
2019-01-31T02:41:51.110Z,19.52
2019-01-31T02:42:23.088Z,19.55
2019-01-31T02:42:55.085Z,19.57
2019-01-31T02:43:27.098Z,19.55
2019-01-31T02:43:59.070Z,19.52
2019-01-31T02:44:31.067Z,19.53
2019-01-31T02:45:03.042Z,19.53
2019-01-31T02:45:35.024Z,19.5
2019-01-31T02:46:06.994Z,19.57
2019-01-31T02:46:38.998Z,19.52
2019-01-31T02:47:10.993Z,19.52
2019-01-31T02:47:42.971Z,19.49
2019-01-31T02:48:14.941Z,19.52
2019-01-31T02:48:47.043Z,19.52
2019-01-31T02:49:19.008Z,19.56
2019-01-31T02:49:50.999Z,19.56
2019-01-31T02:50:22.974Z,19.53
2019-01-31T02:50:54.949Z,19.52
2019-01-31T02:51:26.936Z,19.5
2019-01-31T02:51:58.917Z,19.55
2019-01-31T02:52:30.895Z,19.56
2019-01-31T02:53:02.871Z,19.55
2019-01-31T02:53:34.829Z,19.53
2019-01-31T02:54:06.798Z,19.47
2019-01-31T02:54:38.767Z,19.56
2019-01-31T02:55:10.747Z,19.5
2019-01-31T02:55:42.723Z,19.49
2019-01-31T02:56:14.702Z,19.57
2019-01-31T02:56:46.675Z,19.61
2019-01-31T02:57:18.631Z,19.55
2019-01-31T02:57:50.599Z,19.49
2019-01-31T02:58:22.579Z,19.55
2019-01-31T02:58:54.561Z,19.56
2019-01-31T02:59:26.546Z,19.5
2019-01-31T02:59:58.546Z,19.55
2019-01-31T03:00:30.792Z,19.57
2019-01-31T03:01:02.792Z,19.55
2019-01-31T03:01:34.778Z,19.55
2019-01-31T03:02:06.753Z,19.52
2019-01-31T03:02:38.755Z,19.6
2019-01-31T03:03:10.783Z,19.5
2019-01-31T03:03:42.776Z,19.56
2019-01-31T03:04:14.760Z,19.5
2019-01-31T03:04:46.849Z,19.53
2019-01-31T03:05:18.827Z,19.49
2019-01-31T03:05:50.820Z,19.46
2019-01-31T03:06:22.949Z,19.5
2019-01-31T03:06:54.928Z,19.53
2019-01-31T03:07:26.891Z,19.53
2019-01-31T03:07:58.965Z,19.5
2019-01-31T03:08:30.948Z,19.55
2019-01-31T03:09:02.921Z,19.6
2019-01-31T03:09:34.888Z,19.56
2019-01-31T03:10:06.860Z,19.53
2019-01-31T03:10:39.389Z,19.53
2019-01-31T03:11:11.545Z,19.49
2019-01-31T03:11:43.527Z,19.52
2019-01-31T03:12:15.521Z,19.53
2019-01-31T03:12:47.526Z,19.55
2019-01-31T03:13:19.508Z,19.53
2019-01-31T03:13:51.516Z,19.52
2019-01-31T03:14:23.571Z,19.57
2019-01-31T03:14:55.679Z,19.52
2019-01-31T03:15:27.682Z,19.56
2019-01-31T03:15:59.779Z,19.47
2019-01-31T03:16:31.748Z,19.5
2019-01-31T03:17:03.727Z,19.53
2019-01-31T03:17:35.695Z,19.57
2019-01-31T03:18:07.801Z,19.52
2019-01-31T03:18:39.782Z,19.5
2019-01-31T03:19:11.756Z,19.56
2019-01-31T03:19:43.739Z,19.52
2019-01-31T03:20:15.695Z,19.49
2019-01-31T03:20:47.697Z,19.56
2019-01-31T03:21:19.666Z,19.5
2019-01-31T03:21:51.663Z,19.52
2019-01-31T03:22:23.645Z,19.5
2019-01-31T03:22:55.739Z,19.57
2019-01-31T03:23:27.721Z,19.5
2019-01-31T03:23:59.714Z,19.52
2019-01-31T03:24:31.689Z,19.56
2019-01-31T03:25:03.652Z,19.56
2019-01-31T03:25:35.640Z,19.49
2019-01-31T03:26:07.617Z,19.5
2019-01-31T03:26:39.583Z,19.5
2019-01-31T03:27:11.585Z,19.52
2019-01-31T03:27:43.579Z,19.52
2019-01-31T03:28:15.556Z,19.53
2019-01-31T03:28:47.523Z,19.53
2019-01-31T03:29:19.502Z,19.52
2019-01-31T03:29:51.554Z,19.47
2019-01-31T03:30:24.857Z,19.5
2019-01-31T03:30:57.078Z,19.6
2019-01-31T03:31:29.220Z,19.57
2019-01-31T03:32:01.394Z,19.55
2019-01-31T03:32:33.486Z,19.49
2019-01-31T03:33:05.502Z,19.57
2019-01-31T03:33:37.513Z,19.52
2019-01-31T03:34:09.510Z,19.52
2019-01-31T03:34:41.493Z,19.53
2019-01-31T03:35:13.454Z,19.53
2019-01-31T03:35:45.511Z,19.53
2019-01-31T03:36:17.494Z,19.52
2019-01-31T03:36:50.146Z,19.52
2019-01-31T03:37:22.121Z,19.49
2019-01-31T03:37:54.091Z,19.52
2019-01-31T03:38:26.059Z,19.5
2019-01-31T03:38:58.030Z,19.49
2019-01-31T03:39:30.003Z,19.49
2019-01-31T03:40:06.782Z,19.52
2019-01-31T03:40:39.427Z,19.5
2019-01-31T03:41:11.454Z,19.55
2019-01-31T03:41:43.437Z,19.53
2019-01-31T03:42:15.487Z,19.53
2019-01-31T03:42:47.466Z,19.56
2019-01-31T03:43:19.455Z,19.5
2019-01-31T03:43:51.574Z,19.57
2019-01-31T03:44:23.669Z,19.55
2019-01-31T03:44:55.662Z,19.52
2019-01-31T03:45:27.635Z,19.5
2019-01-31T03:45:59.727Z,19.55
2019-01-31T03:46:31.700Z,19.56
2019-01-31T03:47:03.690Z,19.52
2019-01-31T03:47:35.688Z,19.5
2019-01-31T03:48:07.661Z,19.53
2019-01-31T03:48:39.648Z,19.56
2019-01-31T03:49:11.610Z,19.45
2019-01-31T03:49:43.595Z,19.56
2019-01-31T03:50:15.581Z,19.52
2019-01-31T03:50:47.586Z,19.5
2019-01-31T03:51:19.564Z,19.52
2019-01-31T03:51:51.535Z,19.5
2019-01-31T03:52:23.521Z,19.63
2019-01-31T03:52:55.492Z,19.5
2019-01-31T03:53:27.470Z,19.5
2019-01-31T03:53:59.451Z,19.5
2019-01-31T03:54:31.435Z,19.6
2019-01-31T03:55:03.424Z,19.53
2019-01-31T03:55:35.409Z,19.55
2019-01-31T03:56:07.387Z,19.55
2019-01-31T03:56:39.365Z,19.53
2019-01-31T03:57:11.368Z,19.6
2019-01-31T03:57:43.331Z,19.5
2019-01-31T03:58:15.319Z,19.47
2019-01-31T03:58:47.289Z,19.52
2019-01-31T03:59:19.303Z,19.5
2019-01-31T03:59:51.286Z,19.53
2019-01-31T04:00:23.255Z,19.55
2019-01-31T04:00:55.242Z,19.52
2019-01-31T04:01:27.226Z,19.53
2019-01-31T04:01:59.191Z,19.47
2019-01-31T04:02:31.165Z,19.49
2019-01-31T04:03:03.171Z,19.53
2019-01-31T04:03:35.150Z,19.53
2019-01-31T04:04:07.165Z,19.5
2019-01-31T04:04:39.149Z,19.5
2019-01-31T04:05:11.163Z,19.5
2019-01-31T04:05:43.165Z,19.53
2019-01-31T04:06:15.155Z,19.55
2019-01-31T04:06:47.136Z,19.47
2019-01-31T04:07:19.125Z,19.47
2019-01-31T04:07:51.100Z,19.56
2019-01-31T04:08:23.083Z,19.5
2019-01-31T04:08:55.064Z,19.6
2019-01-31T04:09:27.036Z,19.52
2019-01-31T04:09:59.047Z,19.52
2019-01-31T04:10:31.101Z,19.55
2019-01-31T04:11:03.160Z,19.5
2019-01-31T04:11:35.134Z,19.47
2019-01-31T04:12:07.104Z,19.56
2019-01-31T04:12:39.081Z,19.55
2019-01-31T04:13:11.085Z,19.5
2019-01-31T04:13:43.086Z,19.56
2019-01-31T04:14:15.063Z,19.52
2019-01-31T04:14:47.045Z,19.5
2019-01-31T04:15:19.084Z,19.5
2019-01-31T04:15:51.057Z,19.5
2019-01-31T04:16:23.030Z,19.52
2019-01-31T04:16:55.015Z,19.56
2019-01-31T04:17:26.979Z,19.49
2019-01-31T04:17:58.956Z,19.55
2019-01-31T04:18:30.960Z,19.52
2019-01-31T04:19:02.947Z,19.5
2019-01-31T04:19:34.944Z,19.5
2019-01-31T04:20:06.914Z,19.52
2019-01-31T04:20:38.901Z,19.55
2019-01-31T04:21:10.908Z,19.49
2019-01-31T04:21:42.881Z,19.47
2019-01-31T04:22:14.858Z,19.56
2019-01-31T04:22:46.824Z,19.49
2019-01-31T04:23:18.793Z,19.5
2019-01-31T04:23:50.906Z,19.5
2019-01-31T04:24:22.940Z,19.46
2019-01-31T04:24:54.916Z,19.5
2019-01-31T04:25:27.038Z,19.55
2019-01-31T04:25:59.009Z,19.52
2019-01-31T04:26:31.006Z,19.5
2019-01-31T04:27:02.974Z,19.49
2019-01-31T04:27:34.938Z,19.53
2019-01-31T04:28:06.920Z,19.56
2019-01-31T04:28:38.902Z,19.52
2019-01-31T04:29:10.896Z,19.46
2019-01-31T04:29:42.907Z,19.47
2019-01-31T04:30:14.883Z,19.49
2019-01-31T04:30:46.863Z,19.52
2019-01-31T04:31:18.834Z,19.47
2019-01-31T04:31:50.800Z,19.53
2019-01-31T04:32:22.764Z,19.56
2019-01-31T04:32:54.734Z,19.49
2019-01-31T04:33:26.696Z,19.49
2019-01-31T04:33:58.669Z,19.53
2019-01-31T04:34:30.702Z,19.56
2019-01-31T04:35:02.727Z,19.5
2019-01-31T04:35:34.747Z,19.5
2019-01-31T04:36:06.757Z,19.53
2019-01-31T04:36:38.735Z,19.52
2019-01-31T04:37:10.791Z,19.56
2019-01-31T04:37:42.758Z,19.53
2019-01-31T04:38:14.740Z,19.5
2019-01-31T04:38:50.277Z,19.47
2019-01-31T04:39:22.257Z,19.5
2019-01-31T04:39:54.242Z,19.38
2019-01-31T04:40:31.209Z,19.47
2019-01-31T04:41:03.518Z,19.47
2019-01-31T04:41:35.495Z,19.5
2019-01-31T04:42:07.499Z,19.6
2019-01-31T04:42:39.484Z,19.5
2019-01-31T04:43:11.468Z,19.53
2019-01-31T04:43:43.445Z,19.52
2019-01-31T04:44:15.418Z,19.57
2019-01-31T04:44:47.555Z,19.52
2019-01-31T04:45:19.576Z,19.5
2019-01-31T04:45:51.546Z,19.47
2019-01-31T04:46:23.513Z,19.5
2019-01-31T04:46:55.564Z,19.47
2019-01-31T04:47:27.546Z,19.53
2019-01-31T04:47:59.512Z,19.47
2019-01-31T04:48:31.481Z,19.46
2019-01-31T04:49:03.465Z,19.5
2019-01-31T04:49:35.462Z,19.47
2019-01-31T04:50:07.451Z,19.52
2019-01-31T04:50:39.434Z,19.45
2019-01-31T04:51:11.392Z,19.52
2019-01-31T04:51:43.379Z,19.47
2019-01-31T04:52:15.344Z,19.5
2019-01-31T04:52:47.318Z,19.46
2019-01-31T04:53:19.293Z,19.45
2019-01-31T04:53:51.267Z,19.5
2019-01-31T04:54:23.234Z,19.49
2019-01-31T04:54:55.219Z,19.47
2019-01-31T04:55:27.185Z,19.42
2019-01-31T04:55:59.201Z,19.52
2019-01-31T04:56:31.192Z,19.52
2019-01-31T04:57:03.188Z,19.55
2019-01-31T04:57:35.173Z,19.47
2019-01-31T04:58:07.267Z,19.47
2019-01-31T04:58:39.255Z,19.38
2019-01-31T04:59:11.256Z,19.46
2019-01-31T04:59:43.288Z,19.47
2019-01-31T05:00:15.284Z,19.46
2019-01-31T05:00:47.383Z,19.5
2019-01-31T05:01:19.362Z,19.55
2019-01-31T05:01:51.472Z,19.47
2019-01-31T05:02:23.452Z,19.53
2019-01-31T05:02:55.447Z,19.5
2019-01-31T05:03:27.433Z,19.49
2019-01-31T05:03:59.396Z,19.47
2019-01-31T05:04:31.372Z,19.47
2019-01-31T05:05:03.342Z,19.5
2019-01-31T05:05:35.325Z,19.55
2019-01-31T05:06:07.411Z,19.5
2019-01-31T05:06:39.420Z,19.45
2019-01-31T05:07:11.386Z,19.52
2019-01-31T05:07:43.357Z,19.49
2019-01-31T05:08:15.357Z,19.46
2019-01-31T05:08:47.403Z,19.46
2019-01-31T05:09:19.378Z,19.57
2019-01-31T05:09:51.452Z,19.47
2019-01-31T05:10:23.446Z,19.45
2019-01-31T05:10:55.409Z,19.53
2019-01-31T05:11:27.377Z,19.56
2019-01-31T05:11:59.356Z,19.52
2019-01-31T05:12:31.334Z,19.49
2019-01-31T05:13:03.311Z,19.52
2019-01-31T05:13:35.327Z,19.52
2019-01-31T05:14:07.314Z,19.49
2019-01-31T05:14:39.296Z,19.46
2019-01-31T05:15:11.280Z,19.47
2019-01-31T05:15:43.273Z,19.42
2019-01-31T05:16:15.274Z,19.52
2019-01-31T05:16:47.256Z,19.49
2019-01-31T05:17:19.312Z,19.45
2019-01-31T05:17:51.276Z,19.43
2019-01-31T05:18:23.267Z,19.47
2019-01-31T05:18:55.239Z,19.49
2019-01-31T05:19:27.244Z,19.46
2019-01-31T05:19:59.222Z,19.52
2019-01-31T05:20:31.224Z,19.43
2019-01-31T05:21:03.237Z,19.55
2019-01-31T05:21:35.430Z,19.32
2019-01-31T05:22:07.435Z,19.47
2019-01-31T05:22:39.443Z,19.43
2019-01-31T05:23:11.425Z,19.56
2019-01-31T05:23:43.398Z,19.5
2019-01-31T05:24:15.375Z,19.47
2019-01-31T05:24:47.389Z,19.4
2019-01-31T05:25:19.392Z,19.52
2019-01-31T05:25:51.362Z,19.43
2019-01-31T05:26:23.335Z,19.43
2019-01-31T05:26:55.305Z,19.53
2019-01-31T05:27:27.433Z,19.35
2019-01-31T05:27:59.431Z,19.52
2019-01-31T05:28:31.416Z,19.43
2019-01-31T05:29:03.380Z,19.46
2019-01-31T05:29:35.380Z,19.52
2019-01-31T05:30:07.373Z,19.45
2019-01-31T05:30:39.472Z,19.49
2019-01-31T05:31:11.436Z,19.43
2019-01-31T05:31:43.412Z,19.47
2019-01-31T05:32:15.416Z,19.49
2019-01-31T05:32:47.404Z,19.55
2019-01-31T05:33:19.389Z,19.47
2019-01-31T05:33:51.394Z,19.55
2019-01-31T05:34:23.381Z,19.49
2019-01-31T05:34:55.392Z,19.56
2019-01-31T05:35:27.377Z,19.47
2019-01-31T05:35:59.350Z,19.45
2019-01-31T05:36:31.350Z,19.43
2019-01-31T05:37:03.419Z,19.53
2019-01-31T05:37:35.407Z,19.43
2019-01-31T05:38:07.384Z,19.52
2019-01-31T05:38:39.385Z,19.45
2019-01-31T05:39:11.411Z,19.37
2019-01-31T05:39:43.521Z,19.55
2019-01-31T05:40:15.638Z,19.5
2019-01-31T05:40:55.160Z,19.55
2019-01-31T05:41:27.729Z,19.45
2019-01-31T05:41:59.707Z,19.46
2019-01-31T05:42:31.708Z,19.45
2019-01-31T05:43:03.698Z,19.45
2019-01-31T05:43:35.684Z,19.53
2019-01-31T05:44:07.657Z,19.45
2019-01-31T05:44:39.642Z,19.42
2019-01-31T05:45:11.610Z,19.45
2019-01-31T05:45:43.586Z,19.45
2019-01-31T05:46:18.341Z,19.46
2019-01-31T05:46:50.441Z,19.47
2019-01-31T05:47:22.407Z,19.49
2019-01-31T05:47:54.384Z,19.52
2019-01-31T05:48:26.396Z,19.46
2019-01-31T05:48:58.356Z,19.45
2019-01-31T05:49:30.337Z,19.45
2019-01-31T05:50:02.309Z,19.45
2019-01-31T05:50:34.291Z,19.47
2019-01-31T05:51:06.304Z,19.42
2019-01-31T05:51:39.395Z,19.45
2019-01-31T05:52:11.488Z,19.47
2019-01-31T05:52:43.451Z,19.45
2019-01-31T05:53:15.439Z,19.45
2019-01-31T05:53:47.425Z,19.46
2019-01-31T05:54:19.407Z,19.46
2019-01-31T05:54:51.376Z,19.45
2019-01-31T05:55:23.343Z,19.46
2019-01-31T05:55:55.325Z,19.45
2019-01-31T05:56:27.305Z,19.46
2019-01-31T05:56:59.279Z,19.47
2019-01-31T05:57:31.254Z,19.47
2019-01-31T05:58:03.259Z,19.47
2019-01-31T05:58:35.237Z,19.46
2019-01-31T05:59:07.215Z,19.46
2019-01-31T05:59:39.216Z,19.49
2019-01-31T06:00:11.191Z,19.38
2019-01-31T06:00:43.224Z,19.46
2019-01-31T06:01:15.236Z,19.49
2019-01-31T06:01:47.208Z,19.43
2019-01-31T06:02:19.210Z,19.45
2019-01-31T06:02:51.202Z,19.43
2019-01-31T06:03:23.177Z,19.4
2019-01-31T06:03:55.146Z,19.46
2019-01-31T06:04:27.130Z,19.34
2019-01-31T06:04:59.098Z,19.47
2019-01-31T06:05:31.126Z,19.42
2019-01-31T06:06:03.110Z,19.45
2019-01-31T06:06:35.259Z,19.45
2019-01-31T06:07:11.071Z,19.47
2019-01-31T06:07:43.457Z,19.46
2019-01-31T06:08:15.418Z,19.46
2019-01-31T06:08:47.447Z,19.46
2019-01-31T06:09:19.451Z,19.4
2019-01-31T06:09:51.445Z,19.49
2019-01-31T06:10:23.422Z,19.42
2019-01-31T06:11:06.780Z,19.45
2019-01-31T06:11:39.717Z,19.49
2019-01-31T06:12:11.703Z,19.45
2019-01-31T06:12:43.648Z,19.42
2019-01-31T06:13:15.631Z,19.43
2019-01-31T06:13:47.600Z,19.52
2019-01-31T06:14:19.589Z,19.45
2019-01-31T06:14:51.561Z,19.47
2019-01-31T06:15:23.539Z,19.45
2019-01-31T06:15:55.576Z,19.46
2019-01-31T06:16:27.568Z,19.45
2019-01-31T06:16:59.563Z,19.46
2019-01-31T06:17:31.523Z,19.46
2019-01-31T06:18:03.485Z,19.43
2019-01-31T06:18:35.465Z,19.38
2019-01-31T06:19:07.444Z,19.43
2019-01-31T06:19:39.421Z,19.47
2019-01-31T06:20:11.393Z,19.34
2019-01-31T06:20:43.392Z,19.47
2019-01-31T06:21:15.363Z,19.45
2019-01-31T06:21:47.352Z,19.38
2019-01-31T06:22:19.321Z,19.46
2019-01-31T06:22:51.309Z,19.45
2019-01-31T06:23:23.395Z,19.45
2019-01-31T06:23:55.482Z,19.42
2019-01-31T06:24:27.452Z,19.4
2019-01-31T06:24:59.446Z,19.45
2019-01-31T06:25:31.502Z,19.43
2019-01-31T06:26:03.505Z,19.45
2019-01-31T06:26:35.496Z,19.45
2019-01-31T06:27:07.471Z,19.45
2019-01-31T06:27:39.441Z,19.46
2019-01-31T06:28:12.959Z,19.43
2019-01-31T06:28:45.086Z,19.46
2019-01-31T06:29:17.078Z,19.42
2019-01-31T06:29:49.075Z,19.45
2019-01-31T06:30:21.094Z,19.47
2019-01-31T06:30:53.256Z,19.45
2019-01-31T06:31:25.219Z,19.34
2019-01-31T06:31:57.858Z,19.42
2019-01-31T06:32:29.840Z,19.43
2019-01-31T06:33:01.840Z,19.43
2019-01-31T06:33:34.428Z,19.45
2019-01-31T06:34:06.432Z,19.46
2019-01-31T06:34:38.394Z,19.45
2019-01-31T06:35:10.361Z,19.35
2019-01-31T06:35:42.344Z,19.46
2019-01-31T06:36:14.487Z,19.49
2019-01-31T06:36:46.467Z,19.37
2019-01-31T06:37:18.433Z,19.46
2019-01-31T06:37:50.416Z,19.38
2019-01-31T06:38:22.387Z,19.38
2019-01-31T06:38:54.351Z,19.38
2019-01-31T06:39:26.342Z,19.31
2019-01-31T06:39:58.340Z,19.43
2019-01-31T06:40:30.322Z,19.38
2019-01-31T06:41:02.296Z,19.38
2019-01-31T06:41:34.293Z,19.37
2019-01-31T06:42:06.379Z,19.34
2019-01-31T06:42:38.349Z,19.38
2019-01-31T06:43:12.056Z,19.45
2019-01-31T06:43:44.164Z,19.4
2019-01-31T06:44:16.232Z,19.46
2019-01-31T06:44:48.187Z,19.37
2019-01-31T06:45:20.189Z,19.37
2019-01-31T06:45:52.179Z,19.34
2019-01-31T06:46:27.129Z,19.4
2019-01-31T06:46:59.104Z,19.45
2019-01-31T06:47:31.086Z,19.32
2019-01-31T06:48:05.077Z,19.38
2019-01-31T06:48:37.226Z,19.28
2019-01-31T06:49:09.213Z,19.43
2019-01-31T06:49:41.163Z,19.43
2019-01-31T06:50:13.122Z,19.38
2019-01-31T06:50:45.099Z,19.4
2019-01-31T06:51:17.074Z,19.46
2019-01-31T06:51:49.062Z,19.37
2019-01-31T06:52:21.039Z,19.34
2019-01-31T06:52:53.053Z,19.4
2019-01-31T06:53:25.041Z,19.37
2019-01-31T06:53:57.010Z,19.42
2019-01-31T06:54:28.991Z,19.35
2019-01-31T06:55:00.973Z,19.35
2019-01-31T06:55:32.946Z,19.31